sensor_id;sensor_type;location;lat;lon;timestamp;P1;durP1;ratioP1;P2;durP2;ratioP2
20026;SDS011;10174;42.688;23.344;2023-02-24T00:00:37;22.80;;;11.45;;
20026;SDS011;10174;42.688;23.344;2023-02-24T00:03:14;25.67;;;12.30;;
20026;SDS011;10174;42.688;23.344;2023-02-24T00:05:40;21.55;;;11.55;;
20026;SDS011;10174;42.688;23.344;2023-02-24T00:08:08;25.20;;;11.65;;
20026;SDS011;10174;42.688;23.344;2023-02-24T00:10:34;26.45;;;11.98;;
20026;SDS011;10174;42.688;23.344;2023-02-24T00:13:01;26.33;;;12.13;;
20026;SDS011;10174;42.688;23.344;2023-02-24T00:15:27;21.58;;;10.95;;
20026;SDS011;10174;42.688;23.344;2023-02-24T00:17:52;25.15;;;13.02;;
20026;SDS011;10174;42.688;23.344;2023-02-24T00:20:17;24.98;;;12.45;;
20026;SDS011;10174;42.688;23.344;2023-02-24T00:22:43;28.33;;;12.52;;
20026;SDS011;10174;42.688;23.344;2023-02-24T00:25:09;25.35;;;13.05;;
20026;SDS011;10174;42.688;23.344;2023-02-24T00:27:36;22.88;;;12.18;;
20026;SDS011;10174;42.688;23.344;2023-02-24T00:30:02;30.05;;;12.48;;
20026;SDS011;10174;42.688;23.344;2023-02-24T00:32:29;23.45;;;12.35;;
20026;SDS011;10174;42.688;23.344;2023-02-24T00:34:54;26.13;;;13.43;;
20026;SDS011;10174;42.688;23.344;2023-02-24T00:37:20;29.75;;;13.82;;
20026;SDS011;10174;42.688;23.344;2023-02-24T00:39:49;26.90;;;12.25;;
20026;SDS011;10174;42.688;23.344;2023-02-24T00:42:15;25.95;;;12.45;;
20026;SDS011;10174;42.688;23.344;2023-02-24T00:44:44;25.83;;;12.50;;
20026;SDS011;10174;42.688;23.344;2023-02-24T00:47:11;25.25;;;12.00;;
20026;SDS011;10174;42.688;23.344;2023-02-24T00:49:38;23.70;;;12.32;;
20026;SDS011;10174;42.688;23.344;2023-02-24T00:52:08;23.10;;;11.77;;
20026;SDS011;10174;42.688;23.344;2023-02-24T00:54:38;22.90;;;12.13;;
20026;SDS011;10174;42.688;23.344;2023-02-24T00:57:04;21.73;;;12.48;;
20026;SDS011;10174;42.688;23.344;2023-02-24T00:59:32;24.55;;;13.55;;
20026;SDS011;10174;42.688;23.344;2023-02-24T01:01:58;25.23;;;13.52;;
20026;SDS011;10174;42.688;23.344;2023-02-24T01:04:23;22.50;;;12.93;;
20026;SDS011;10174;42.688;23.344;2023-02-24T01:06:50;26.27;;;13.75;;
20026;SDS011;10174;42.688;23.344;2023-02-24T01:09:24;24.48;;;13.15;;
20026;SDS011;10174;42.688;23.344;2023-02-24T01:11:51;23.90;;;12.30;;
20026;SDS011;10174;42.688;23.344;2023-02-24T01:14:36;24.05;;;13.02;;
20026;SDS011;10174;42.688;23.344;2023-02-24T01:17:04;29.83;;;14.20;;
20026;SDS011;10174;42.688;23.344;2023-02-24T01:19:31;25.02;;;12.93;;
20026;SDS011;10174;42.688;23.344;2023-02-24T01:21:58;21.30;;;11.65;;
20026;SDS011;10174;42.688;23.344;2023-02-24T01:24:36;23.88;;;12.13;;
20026;SDS011;10174;42.688;23.344;2023-02-24T01:27:03;26.42;;;13.38;;
20026;SDS011;10174;42.688;23.344;2023-02-24T01:29:29;23.35;;;11.57;;
20026;SDS011;10174;42.688;23.344;2023-02-24T01:31:54;23.77;;;12.88;;
20026;SDS011;10174;42.688;23.344;2023-02-24T01:34:23;22.02;;;11.30;;
20026;SDS011;10174;42.688;23.344;2023-02-24T01:36:49;20.88;;;10.73;;
20026;SDS011;10174;42.688;23.344;2023-02-24T01:39:15;23.15;;;12.43;;
20026;SDS011;10174;42.688;23.344;2023-02-24T01:41:41;22.50;;;12.38;;
20026;SDS011;10174;42.688;23.344;2023-02-24T01:46:41;22.58;;;12.95;;
20026;SDS011;10174;42.688;23.344;2023-02-24T01:49:18;22.20;;;11.80;;
20026;SDS011;10174;42.688;23.344;2023-02-24T01:51:48;22.02;;;10.88;;
20026;SDS011;10174;42.688;23.344;2023-02-24T01:54:15;20.80;;;11.25;;
20026;SDS011;10174;42.688;23.344;2023-02-24T01:56:45;23.73;;;11.05;;
20026;SDS011;10174;42.688;23.344;2023-02-24T01:59:13;20.23;;;11.15;;
20026;SDS011;10174;42.688;23.344;2023-02-24T02:01:40;19.98;;;10.60;;
20026;SDS011;10174;42.688;23.344;2023-02-24T02:04:30;20.23;;;10.88;;
20026;SDS011;10174;42.688;23.344;2023-02-24T02:07:15;17.80;;;9.87;;
20026;SDS011;10174;42.688;23.344;2023-02-24T02:09:43;20.75;;;10.50;;
20026;SDS011;10174;42.688;23.344;2023-02-24T02:12:11;19.58;;;10.40;;
20026;SDS011;10174;42.688;23.344;2023-02-24T02:14:37;20.30;;;10.13;;
20026;SDS011;10174;42.688;23.344;2023-02-24T02:19:59;18.00;;;9.10;;
20026;SDS011;10174;42.688;23.344;2023-02-24T02:22:44;19.80;;;9.77;;
20026;SDS011;10174;42.688;23.344;2023-02-24T02:25:56;17.88;;;9.63;;
20026;SDS011;10174;42.688;23.344;2023-02-24T02:29:06;21.27;;;10.45;;
20026;SDS011;10174;42.688;23.344;2023-02-24T02:42:58;22.38;;;10.05;;
20026;SDS011;10174;42.688;23.344;2023-02-24T02:48:30;19.50;;;9.32;;
20026;SDS011;10174;42.688;23.344;2023-02-24T02:51:04;19.38;;;10.05;;
20026;SDS011;10174;42.688;23.344;2023-02-24T02:53:37;21.48;;;9.93;;
20026;SDS011;10174;42.688;23.344;2023-02-24T02:56:08;17.90;;;8.93;;
20026;SDS011;10174;42.688;23.344;2023-02-24T02:58:45;18.80;;;8.88;;
20026;SDS011;10174;42.688;23.344;2023-02-24T03:01:17;19.10;;;8.68;;
20026;SDS011;10174;42.688;23.344;2023-02-24T03:03:46;23.42;;;10.43;;
20026;SDS011;10174;42.688;23.344;2023-02-24T03:06:36;18.58;;;9.52;;
20026;SDS011;10174;42.688;23.344;2023-02-24T03:09:22;19.52;;;9.60;;
20026;SDS011;10174;42.688;23.344;2023-02-24T03:14:25;22.98;;;10.57;;
20026;SDS011;10174;42.688;23.344;2023-02-24T03:17:01;22.75;;;10.10;;
20026;SDS011;10174;42.688;23.344;2023-02-24T03:19:32;20.30;;;10.35;;
20026;SDS011;10174;42.688;23.344;2023-02-24T03:22:06;21.00;;;9.93;;
20026;SDS011;10174;42.688;23.344;2023-02-24T03:24:41;24.25;;;10.60;;
20026;SDS011;10174;42.688;23.344;2023-02-24T03:30:13;19.63;;;9.52;;
20026;SDS011;10174;42.688;23.344;2023-02-24T03:35:25;19.88;;;9.68;;
20026;SDS011;10174;42.688;23.344;2023-02-24T03:37:54;21.13;;;10.00;;
20026;SDS011;10174;42.688;23.344;2023-02-24T03:40:22;18.60;;;9.38;;
20026;SDS011;10174;42.688;23.344;2023-02-24T03:43:00;17.77;;;9.10;;
20026;SDS011;10174;42.688;23.344;2023-02-24T03:45:47;21.35;;;10.25;;
20026;SDS011;10174;42.688;23.344;2023-02-24T03:48:13;16.40;;;8.27;;
20026;SDS011;10174;42.688;23.344;2023-02-24T03:50:40;20.15;;;9.32;;
20026;SDS011;10174;42.688;23.344;2023-02-24T04:01:18;16.10;;;8.18;;
20026;SDS011;10174;42.688;23.344;2023-02-24T04:03:56;19.20;;;8.80;;
20026;SDS011;10174;42.688;23.344;2023-02-24T04:06:42;18.92;;;7.97;;
20026;SDS011;10174;42.688;23.344;2023-02-24T04:17:06;15.80;;;8.63;;
20026;SDS011;10174;42.688;23.344;2023-02-24T04:19:38;14.60;;;8.55;;
20026;SDS011;10174;42.688;23.344;2023-02-24T04:22:07;15.15;;;9.05;;
20026;SDS011;10174;42.688;23.344;2023-02-24T04:24:36;16.58;;;8.98;;
20026;SDS011;10174;42.688;23.344;2023-02-24T04:27:05;17.60;;;8.95;;
20026;SDS011;10174;42.688;23.344;2023-02-24T04:29:37;19.67;;;9.05;;
20026;SDS011;10174;42.688;23.344;2023-02-24T04:32:11;21.17;;;8.40;;
20026;SDS011;10174;42.688;23.344;2023-02-24T04:34:38;19.05;;;8.40;;
20026;SDS011;10174;42.688;23.344;2023-02-24T04:37:04;19.23;;;8.32;;
20026;SDS011;10174;42.688;23.344;2023-02-24T04:39:30;16.67;;;8.45;;
20026;SDS011;10174;42.688;23.344;2023-02-24T04:41:56;19.60;;;8.35;;
20026;SDS011;10174;42.688;23.344;2023-02-24T04:44:23;17.40;;;8.55;;
20026;SDS011;10174;42.688;23.344;2023-02-24T04:46:49;17.27;;;8.70;;
20026;SDS011;10174;42.688;23.344;2023-02-24T04:49:15;16.10;;;8.15;;
20026;SDS011;10174;42.688;23.344;2023-02-24T04:51:42;25.25;;;8.57;;
20026;SDS011;10174;42.688;23.344;2023-02-24T04:54:09;19.35;;;7.85;;
20026;SDS011;10174;42.688;23.344;2023-02-24T04:56:37;21.02;;;7.88;;
20026;SDS011;10174;42.688;23.344;2023-02-24T04:59:05;15.43;;;7.25;;
20026;SDS011;10174;42.688;23.344;2023-02-24T05:01:31;15.35;;;7.32;;
20026;SDS011;10174;42.688;23.344;2023-02-24T05:03:56;18.00;;;7.65;;
20026;SDS011;10174;42.688;23.344;2023-02-24T05:06:21;18.48;;;7.68;;
20026;SDS011;10174;42.688;23.344;2023-02-24T05:08:47;21.48;;;8.80;;
20026;SDS011;10174;42.688;23.344;2023-02-24T05:11:16;22.20;;;8.75;;
20026;SDS011;10174;42.688;23.344;2023-02-24T05:13:42;25.15;;;9.93;;
20026;SDS011;10174;42.688;23.344;2023-02-24T05:16:12;23.38;;;9.82;;
20026;SDS011;10174;42.688;23.344;2023-02-24T05:18:39;19.45;;;9.13;;
20026;SDS011;10174;42.688;23.344;2023-02-24T05:21:06;20.92;;;8.43;;
20026;SDS011;10174;42.688;23.344;2023-02-24T05:23:51;18.02;;;7.63;;
20026;SDS011;10174;42.688;23.344;2023-02-24T05:26:18;15.80;;;7.40;;
20026;SDS011;10174;42.688;23.344;2023-02-24T05:28:45;21.65;;;8.07;;
20026;SDS011;10174;42.688;23.344;2023-02-24T05:31:16;16.60;;;7.53;;
20026;SDS011;10174;42.688;23.344;2023-02-24T05:33:46;19.35;;;8.30;;
20026;SDS011;10174;42.688;23.344;2023-02-24T05:36:14;15.88;;;7.93;;
20026;SDS011;10174;42.688;23.344;2023-02-24T05:38:44;18.27;;;8.05;;
20026;SDS011;10174;42.688;23.344;2023-02-24T05:41:17;21.50;;;7.18;;
20026;SDS011;10174;42.688;23.344;2023-02-24T05:43:47;14.02;;;7.22;;
20026;SDS011;10174;42.688;23.344;2023-02-24T05:46:27;17.60;;;8.35;;
20026;SDS011;10174;42.688;23.344;2023-02-24T05:48:56;16.98;;;7.68;;
20026;SDS011;10174;42.688;23.344;2023-02-24T05:51:25;20.10;;;7.78;;
20026;SDS011;10174;42.688;23.344;2023-02-24T05:53:59;16.20;;;7.60;;
20026;SDS011;10174;42.688;23.344;2023-02-24T05:56:29;16.63;;;7.63;;
20026;SDS011;10174;42.688;23.344;2023-02-24T05:58:59;16.90;;;8.25;;
20026;SDS011;10174;42.688;23.344;2023-02-24T06:01:29;18.75;;;7.63;;
20026;SDS011;10174;42.688;23.344;2023-02-24T06:03:57;17.13;;;7.88;;
20026;SDS011;10174;42.688;23.344;2023-02-24T06:06:39;20.63;;;8.07;;
20026;SDS011;10174;42.688;23.344;2023-02-24T06:11:38;15.18;;;7.55;;
20026;SDS011;10174;42.688;23.344;2023-02-24T06:14:05;17.20;;;8.15;;
20026;SDS011;10174;42.688;23.344;2023-02-24T06:16:35;20.48;;;9.73;;
20026;SDS011;10174;42.688;23.344;2023-02-24T06:19:02;23.30;;;8.00;;
20026;SDS011;10174;42.688;23.344;2023-02-24T06:21:29;18.55;;;8.13;;
20026;SDS011;10174;42.688;23.344;2023-02-24T06:23:55;20.23;;;8.57;;
20026;SDS011;10174;42.688;23.344;2023-02-24T06:26:22;23.60;;;9.88;;
20026;SDS011;10174;42.688;23.344;2023-02-24T06:28:51;21.83;;;9.43;;
20026;SDS011;10174;42.688;23.344;2023-02-24T06:31:18;23.90;;;9.85;;
20026;SDS011;10174;42.688;23.344;2023-02-24T06:33:45;25.55;;;10.48;;
20026;SDS011;10174;42.688;23.344;2023-02-24T06:36:11;22.05;;;9.18;;
20026;SDS011;10174;42.688;23.344;2023-02-24T06:38:41;23.38;;;10.00;;
20026;SDS011;10174;42.688;23.344;2023-02-24T06:41:07;21.65;;;9.55;;
20026;SDS011;10174;42.688;23.344;2023-02-24T06:43:36;19.98;;;8.57;;
20026;SDS011;10174;42.688;23.344;2023-02-24T06:46:07;18.35;;;8.05;;
20026;SDS011;10174;42.688;23.344;2023-02-24T06:48:34;21.10;;;8.25;;
20026;SDS011;10174;42.688;23.344;2023-02-24T06:51:08;23.75;;;10.93;;
20026;SDS011;10174;42.688;23.344;2023-02-24T06:53:37;18.08;;;7.95;;
20026;SDS011;10174;42.688;23.344;2023-02-24T06:56:13;15.32;;;7.45;;
20026;SDS011;10174;42.688;23.344;2023-02-24T06:58:48;18.00;;;7.63;;
20026;SDS011;10174;42.688;23.344;2023-02-24T07:01:17;19.63;;;7.68;;
20026;SDS011;10174;42.688;23.344;2023-02-24T07:03:45;15.32;;;7.25;;
20026;SDS011;10174;42.688;23.344;2023-02-24T07:06:30;17.42;;;7.97;;
20026;SDS011;10174;42.688;23.344;2023-02-24T07:08:59;21.23;;;9.10;;
20026;SDS011;10174;42.688;23.344;2023-02-24T07:11:26;19.95;;;9.27;;
20026;SDS011;10174;42.688;23.344;2023-02-24T07:13:52;21.50;;;8.15;;
20026;SDS011;10174;42.688;23.344;2023-02-24T07:16:19;15.90;;;7.25;;
20026;SDS011;10174;42.688;23.344;2023-02-24T07:18:51;19.55;;;8.35;;
20026;SDS011;10174;42.688;23.344;2023-02-24T07:21:18;33.05;;;15.98;;
20026;SDS011;10174;42.688;23.344;2023-02-24T07:23:47;26.75;;;9.95;;
20026;SDS011;10174;42.688;23.344;2023-02-24T07:26:17;27.55;;;10.13;;
20026;SDS011;10174;42.688;23.344;2023-02-24T07:28:44;24.88;;;10.70;;
20026;SDS011;10174;42.688;23.344;2023-02-24T07:31:13;68.43;;;28.38;;
20026;SDS011;10174;42.688;23.344;2023-02-24T07:33:41;31.15;;;12.35;;
20026;SDS011;10174;42.688;23.344;2023-02-24T07:36:09;23.00;;;9.75;;
20026;SDS011;10174;42.688;23.344;2023-02-24T07:38:39;20.05;;;10.70;;
20026;SDS011;10174;42.688;23.344;2023-02-24T07:41:05;21.40;;;9.32;;
20026;SDS011;10174;42.688;23.344;2023-02-24T07:43:35;23.40;;;8.32;;
20026;SDS011;10174;42.688;23.344;2023-02-24T07:46:09;28.92;;;10.85;;
20026;SDS011;10174;42.688;23.344;2023-02-24T07:48:36;27.85;;;10.10;;
20026;SDS011;10174;42.688;23.344;2023-02-24T07:51:11;25.42;;;10.70;;
20026;SDS011;10174;42.688;23.344;2023-02-24T07:53:42;23.20;;;9.27;;
20026;SDS011;10174;42.688;23.344;2023-02-24T07:56:08;22.60;;;10.20;;
20026;SDS011;10174;42.688;23.344;2023-02-24T07:58:38;27.90;;;12.85;;
20026;SDS011;10174;42.688;23.344;2023-02-24T08:01:08;24.13;;;11.02;;
20026;SDS011;10174;42.688;23.344;2023-02-24T08:03:52;31.50;;;15.27;;
20026;SDS011;10174;42.688;23.344;2023-02-24T08:06:33;22.27;;;10.40;;
20026;SDS011;10174;42.688;23.344;2023-02-24T08:09:08;22.85;;;9.75;;
20026;SDS011;10174;42.688;23.344;2023-02-24T08:11:49;24.23;;;11.38;;
20026;SDS011;10174;42.688;23.344;2023-02-24T08:14:22;29.00;;;11.30;;
20026;SDS011;10174;42.688;23.344;2023-02-24T08:16:51;32.25;;;11.98;;
20026;SDS011;10174;42.688;23.344;2023-02-24T08:19:24;31.20;;;12.93;;
20026;SDS011;10174;42.688;23.344;2023-02-24T08:21:57;41.83;;;16.83;;
20026;SDS011;10174;42.688;23.344;2023-02-24T08:24:45;30.55;;;13.20;;
20026;SDS011;10174;42.688;23.344;2023-02-24T08:27:25;33.72;;;14.52;;
20026;SDS011;10174;42.688;23.344;2023-02-24T08:29:54;30.63;;;13.00;;
20026;SDS011;10174;42.688;23.344;2023-02-24T08:34:49;42.20;;;16.55;;
20026;SDS011;10174;42.688;23.344;2023-02-24T08:37:20;46.10;;;17.98;;
20026;SDS011;10174;42.688;23.344;2023-02-24T08:39:45;41.05;;;15.93;;
20026;SDS011;10174;42.688;23.344;2023-02-24T08:42:11;39.72;;;16.73;;
20026;SDS011;10174;42.688;23.344;2023-02-24T08:44:38;32.40;;;11.75;;
20026;SDS011;10174;42.688;23.344;2023-02-24T08:47:04;27.10;;;12.23;;
20026;SDS011;10174;42.688;23.344;2023-02-24T08:49:31;25.45;;;11.10;;
20026;SDS011;10174;42.688;23.344;2023-02-24T08:51:57;25.27;;;11.88;;
20026;SDS011;10174;42.688;23.344;2023-02-24T08:54:26;40.15;;;12.30;;
20026;SDS011;10174;42.688;23.344;2023-02-24T08:56:56;42.88;;;12.23;;
20026;SDS011;10174;42.688;23.344;2023-02-24T08:59:32;30.02;;;11.52;;
20026;SDS011;10174;42.688;23.344;2023-02-24T09:02:05;29.58;;;11.75;;
20026;SDS011;10174;42.688;23.344;2023-02-24T09:04:43;51.63;;;18.17;;
20026;SDS011;10174;42.688;23.344;2023-02-24T09:07:43;30.98;;;11.13;;
20026;SDS011;10174;42.688;23.344;2023-02-24T09:10:03;26.55;;;11.80;;
20026;SDS011;10174;42.688;23.344;2023-02-24T09:12:36;28.60;;;12.65;;
20026;SDS011;10174;42.688;23.344;2023-02-24T09:15:05;29.15;;;11.50;;
20026;SDS011;10174;42.688;23.344;2023-02-24T09:17:33;34.10;;;10.90;;
20026;SDS011;10174;42.688;23.344;2023-02-24T09:20:22;43.95;;;11.55;;
20026;SDS011;10174;42.688;23.344;2023-02-24T09:23:06;25.73;;;10.55;;
20026;SDS011;10174;42.688;23.344;2023-02-24T09:25:33;30.20;;;9.75;;
20026;SDS011;10174;42.688;23.344;2023-02-24T09:28:14;30.40;;;11.75;;
20026;SDS011;10174;42.688;23.344;2023-02-24T09:30:46;26.40;;;10.10;;
20026;SDS011;10174;42.688;23.344;2023-02-24T09:36:12;24.52;;;10.52;;
20026;SDS011;10174;42.688;23.344;2023-02-24T09:44:37;29.73;;;10.70;;
20026;SDS011;10174;42.688;23.344;2023-02-24T09:49:55;32.13;;;12.48;;
20026;SDS011;10174;42.688;23.344;2023-02-24T09:52:25;28.33;;;11.98;;
20026;SDS011;10174;42.688;23.344;2023-02-24T09:55:16;26.67;;;11.60;;
20026;SDS011;10174;42.688;23.344;2023-02-24T09:58:25;28.23;;;12.20;;
20026;SDS011;10174;42.688;23.344;2023-02-24T10:06:28;30.30;;;12.07;;
20026;SDS011;10174;42.688;23.344;2023-02-24T10:09:05;42.47;;;13.75;;
20026;SDS011;10174;42.688;23.344;2023-02-24T10:11:42;28.23;;;11.60;;
20026;SDS011;10174;42.688;23.344;2023-02-24T10:14:19;31.27;;;14.18;;
20026;SDS011;10174;42.688;23.344;2023-02-24T10:16:55;41.15;;;13.45;;
20026;SDS011;10174;42.688;23.344;2023-02-24T10:19:40;34.63;;;14.15;;
20026;SDS011;10174;42.688;23.344;2023-02-24T10:22:17;28.42;;;12.88;;
20026;SDS011;10174;42.688;23.344;2023-02-24T10:25:02;66.00;;;23.67;;
20026;SDS011;10174;42.688;23.344;2023-02-24T10:27:40;36.88;;;14.38;;
20026;SDS011;10174;42.688;23.344;2023-02-24T10:30:17;47.85;;;14.20;;
20026;SDS011;10174;42.688;23.344;2023-02-24T10:33:04;35.63;;;12.88;;
20026;SDS011;10174;42.688;23.344;2023-02-24T10:35:40;34.78;;;12.88;;
20026;SDS011;10174;42.688;23.344;2023-02-24T10:38:07;57.42;;;13.25;;
20026;SDS011;10174;42.688;23.344;2023-02-24T10:40:42;34.90;;;12.57;;
20026;SDS011;10174;42.688;23.344;2023-02-24T10:43:15;37.90;;;11.70;;
20026;SDS011;10174;42.688;23.344;2023-02-24T10:45:43;25.75;;;10.77;;
20026;SDS011;10174;42.688;23.344;2023-02-24T10:48:14;33.40;;;11.52;;
20026;SDS011;10174;42.688;23.344;2023-02-24T10:50:49;28.42;;;12.00;;
20026;SDS011;10174;42.688;23.344;2023-02-24T10:53:32;27.75;;;12.18;;
20026;SDS011;10174;42.688;23.344;2023-02-24T10:56:04;23.60;;;11.18;;
20026;SDS011;10174;42.688;23.344;2023-02-24T10:59:00;43.83;;;13.20;;
20026;SDS011;10174;42.688;23.344;2023-02-24T11:02:13;24.23;;;11.35;;
20026;SDS011;10174;42.688;23.344;2023-02-24T11:04:53;27.33;;;11.93;;
20026;SDS011;10174;42.688;23.344;2023-02-24T11:07:23;30.42;;;12.25;;
20026;SDS011;10174;42.688;23.344;2023-02-24T11:15:34;31.58;;;12.88;;
20026;SDS011;10174;42.688;23.344;2023-02-24T11:18:22;45.92;;;13.07;;
20026;SDS011;10174;42.688;23.344;2023-02-24T11:23:23;33.45;;;15.02;;
20026;SDS011;10174;42.688;23.344;2023-02-24T11:25:52;28.52;;;12.63;;
20026;SDS011;10174;42.688;23.344;2023-02-24T11:37:12;26.00;;;12.02;;
20026;SDS011;10174;42.688;23.344;2023-02-24T11:42:53;29.08;;;13.80;;
20026;SDS011;10174;42.688;23.344;2023-02-24T11:51:16;25.73;;;11.07;;
20026;SDS011;10174;42.688;23.344;2023-02-24T11:53:33;33.00;;;12.18;;
20026;SDS011;10174;42.688;23.344;2023-02-24T11:56:04;29.65;;;11.50;;
20026;SDS011;10174;42.688;23.344;2023-02-24T12:01:23;22.38;;;12.07;;
20026;SDS011;10174;42.688;23.344;2023-02-24T12:09:40;27.10;;;12.00;;
20026;SDS011;10174;42.688;23.344;2023-02-24T12:14:56;33.20;;;14.25;;
20026;SDS011;10174;42.688;23.344;2023-02-24T12:17:33;37.03;;;17.77;;
20026;SDS011;10174;42.688;23.344;2023-02-24T12:22:46;32.40;;;14.02;;
20026;SDS011;10174;42.688;23.344;2023-02-24T12:25:18;42.55;;;19.13;;
20026;SDS011;10174;42.688;23.344;2023-02-24T12:42:21;28.52;;;13.50;;
20026;SDS011;10174;42.688;23.344;2023-02-24T12:45:39;34.20;;;14.38;;
20026;SDS011;10174;42.688;23.344;2023-02-24T12:53:49;26.50;;;13.57;;
20026;SDS011;10174;42.688;23.344;2023-02-24T12:56:41;31.25;;;13.25;;
20026;SDS011;10174;42.688;23.344;2023-02-24T12:59:16;28.85;;;13.23;;
20026;SDS011;10174;42.688;23.344;2023-02-24T13:04:35;28.50;;;14.43;;
20026;SDS011;10174;42.688;23.344;2023-02-24T13:07:06;36.80;;;18.40;;
20026;SDS011;10174;42.688;23.344;2023-02-24T13:14:58;38.70;;;17.98;;
20026;SDS011;10174;42.688;23.344;2023-02-24T13:17:27;34.40;;;17.27;;
20026;SDS011;10174;42.688;23.344;2023-02-24T13:19:53;35.30;;;19.40;;
20026;SDS011;10174;42.688;23.344;2023-02-24T13:22:29;39.60;;;19.25;;
20026;SDS011;10174;42.688;23.344;2023-02-24T13:27:25;39.78;;;18.83;;
20026;SDS011;10174;42.688;23.344;2023-02-24T13:29:52;42.58;;;19.35;;
20026;SDS011;10174;42.688;23.344;2023-02-24T13:34:47;40.97;;;19.63;;
20026;SDS011;10174;42.688;23.344;2023-02-24T13:37:25;55.80;;;23.15;;
20026;SDS011;10174;42.688;23.344;2023-02-24T13:51:05;51.50;;;22.33;;
20026;SDS011;10174;42.688;23.344;2023-02-24T13:59:27;53.80;;;25.73;;
20026;SDS011;10174;42.688;23.344;2023-02-24T14:04:31;75.65;;;36.80;;
20026;SDS011;10174;42.688;23.344;2023-02-24T14:07:00;53.25;;;26.13;;
20026;SDS011;10174;42.688;23.344;2023-02-24T14:09:32;60.03;;;28.90;;
20026;SDS011;10174;42.688;23.344;2023-02-24T14:12:11;69.25;;;31.30;;
20026;SDS011;10174;42.688;23.344;2023-02-24T14:14:41;52.00;;;25.25;;
20026;SDS011;10174;42.688;23.344;2023-02-24T14:17:29;53.08;;;22.27;;
20026;SDS011;10174;42.688;23.344;2023-02-24T14:20:06;50.55;;;25.55;;
20026;SDS011;10174;42.688;23.344;2023-02-24T14:22:33;60.85;;;28.20;;
20026;SDS011;10174;42.688;23.344;2023-02-24T14:25:05;55.15;;;28.10;;
20026;SDS011;10174;42.688;23.344;2023-02-24T14:27:33;57.42;;;27.58;;
20026;SDS011;10174;42.688;23.344;2023-02-24T14:29:58;64.15;;;29.13;;
20026;SDS011;10174;42.688;23.344;2023-02-24T14:32:25;56.28;;;27.77;;
20026;SDS011;10174;42.688;23.344;2023-02-24T14:34:52;63.58;;;30.85;;
20026;SDS011;10174;42.688;23.344;2023-02-24T14:37:23;66.63;;;33.25;;
20026;SDS011;10174;42.688;23.344;2023-02-24T14:39:53;67.40;;;31.95;;
20026;SDS011;10174;42.688;23.344;2023-02-24T14:42:24;62.47;;;28.85;;
20026;SDS011;10174;42.688;23.344;2023-02-24T14:44:56;54.88;;;26.33;;
20026;SDS011;10174;42.688;23.344;2023-02-24T14:47:24;51.42;;;25.55;;
20026;SDS011;10174;42.688;23.344;2023-02-24T14:50:03;53.80;;;26.50;;
20026;SDS011;10174;42.688;23.344;2023-02-24T14:52:38;56.60;;;27.25;;
20026;SDS011;10174;42.688;23.344;2023-02-24T14:57:42;54.78;;;24.95;;
20026;SDS011;10174;42.688;23.344;2023-02-24T15:00:16;64.60;;;29.85;;
20026;SDS011;10174;42.688;23.344;2023-02-24T15:05:49;51.03;;;24.88;;
20026;SDS011;10174;42.688;23.344;2023-02-24T15:11:20;55.63;;;24.77;;
20026;SDS011;10174;42.688;23.344;2023-02-24T15:13:50;53.42;;;26.23;;
20026;SDS011;10174;42.688;23.344;2023-02-24T15:16:22;66.35;;;25.83;;
20026;SDS011;10174;42.688;23.344;2023-02-24T15:18:57;53.60;;;24.15;;
20026;SDS011;10174;42.688;23.344;2023-02-24T15:21:27;67.22;;;27.23;;
20026;SDS011;10174;42.688;23.344;2023-02-24T15:24:29;64.03;;;28.50;;
20026;SDS011;10174;42.688;23.344;2023-02-24T15:26:59;75.60;;;28.77;;
20026;SDS011;10174;42.688;23.344;2023-02-24T15:29:27;68.45;;;31.55;;
20026;SDS011;10174;42.688;23.344;2023-02-24T15:31:56;74.90;;;33.58;;
20026;SDS011;10174;42.688;23.344;2023-02-24T15:34:27;73.32;;;33.25;;
20026;SDS011;10174;42.688;23.344;2023-02-24T15:36:56;86.30;;;33.67;;
20026;SDS011;10174;42.688;23.344;2023-02-24T15:39:28;73.53;;;31.95;;
20026;SDS011;10174;42.688;23.344;2023-02-24T15:42:06;81.40;;;34.83;;
20026;SDS011;10174;42.688;23.344;2023-02-24T15:44:37;65.38;;;32.30;;
20026;SDS011;10174;42.688;23.344;2023-02-24T15:47:22;78.70;;;34.85;;
20026;SDS011;10174;42.688;23.344;2023-02-24T15:49:50;84.30;;;34.55;;
20026;SDS011;10174;42.688;23.344;2023-02-24T15:52:22;78.07;;;33.58;;
20026;SDS011;10174;42.688;23.344;2023-02-24T15:54:50;74.47;;;34.33;;
20026;SDS011;10174;42.688;23.344;2023-02-24T15:57:16;142.40;;;53.90;;
20026;SDS011;10174;42.688;23.344;2023-02-24T15:59:43;91.57;;;35.17;;
20026;SDS011;10174;42.688;23.344;2023-02-24T16:02:12;115.10;;;35.22;;
20026;SDS011;10174;42.688;23.344;2023-02-24T16:04:44;85.22;;;35.63;;
20026;SDS011;10174;42.688;23.344;2023-02-24T16:07:10;87.93;;;36.53;;
20026;SDS011;10174;42.688;23.344;2023-02-24T16:09:44;83.55;;;36.10;;
20026;SDS011;10174;42.688;23.344;2023-02-24T16:12:14;84.75;;;36.08;;
20026;SDS011;10174;42.688;23.344;2023-02-24T16:14:43;65.78;;;30.63;;
20026;SDS011;10174;42.688;23.344;2023-02-24T16:17:23;85.95;;;32.80;;
20026;SDS011;10174;42.688;23.344;2023-02-24T16:19:56;77.85;;;34.22;;
20026;SDS011;10174;42.688;23.344;2023-02-24T16:22:22;98.50;;;42.15;;
20026;SDS011;10174;42.688;23.344;2023-02-24T16:24:48;83.63;;;33.85;;
20026;SDS011;10174;42.688;23.344;2023-02-24T16:27:15;86.63;;;37.10;;
20026;SDS011;10174;42.688;23.344;2023-02-24T16:29:42;99.60;;;39.80;;
20026;SDS011;10174;42.688;23.344;2023-02-24T16:32:11;83.90;;;36.67;;
20026;SDS011;10174;42.688;23.344;2023-02-24T16:34:37;90.72;;;39.05;;
20026;SDS011;10174;42.688;23.344;2023-02-24T16:37:03;80.65;;;37.30;;
20026;SDS011;10174;42.688;23.344;2023-02-24T16:39:40;96.28;;;34.63;;
20026;SDS011;10174;42.688;23.344;2023-02-24T16:42:05;75.97;;;31.52;;
20026;SDS011;10174;42.688;23.344;2023-02-24T16:44:31;91.95;;;32.45;;
20026;SDS011;10174;42.688;23.344;2023-02-24T16:46:56;80.18;;;34.83;;
20026;SDS011;10174;42.688;23.344;2023-02-24T16:49:22;88.72;;;36.67;;
20026;SDS011;10174;42.688;23.344;2023-02-24T16:51:47;93.45;;;37.35;;
20026;SDS011;10174;42.688;23.344;2023-02-24T16:54:13;83.25;;;33.88;;
20026;SDS011;10174;42.688;23.344;2023-02-24T16:56:38;86.88;;;34.25;;
20026;SDS011;10174;42.688;23.344;2023-02-24T16:59:04;88.88;;;34.45;;
20026;SDS011;10174;42.688;23.344;2023-02-24T17:01:29;92.53;;;35.65;;
20026;SDS011;10174;42.688;23.344;2023-02-24T17:03:55;99.70;;;36.35;;
20026;SDS011;10174;42.688;23.344;2023-02-24T17:06:20;99.38;;;38.47;;
20026;SDS011;10174;42.688;23.344;2023-02-24T17:08:47;98.65;;;38.53;;
20026;SDS011;10174;42.688;23.344;2023-02-24T17:11:13;89.22;;;39.78;;
20026;SDS011;10174;42.688;23.344;2023-02-24T17:13:41;94.90;;;37.85;;
20026;SDS011;10174;42.688;23.344;2023-02-24T17:16:06;97.63;;;36.53;;
20026;SDS011;10174;42.688;23.344;2023-02-24T17:18:32;103.82;;;43.03;;
20026;SDS011;10174;42.688;23.344;2023-02-24T17:20:57;112.25;;;44.33;;
20026;SDS011;10174;42.688;23.344;2023-02-24T17:23:22;104.07;;;42.05;;